ISABELLA DAM (ISB)

Elevation: 2635' · KERN R basin · Operator: US Army Corps of Engineers

Provisional data, subject to change.
Query executed Tuesday at 22:15:49   clock

Select a sensor type for a plot of data.
Note: Reservoir Flows are daily averages.

Earlier

Date RES ELE    STORAGE    RES CHG    TOC STO    ABV TOC    OUTFLOW    INFLOW    FNF    PPT INC    PPTINC4    TEMP MN    TEMP MX    WINDLEN    EVP PAN   
 FEET   AF   AF   AF   AF   CFS   CFS   CFS   INCHES   INCHES   DEG F   DEG F   MILES   INCHES  
04/25/2016 2542.65 84254 1294 361250 -276996 325 994 994 0.05 0.17 5 13 382 0.16
04/26/2016 2542.92 85263 1009 361250 -275987 323 857 857 0.00 0.03 6 18 331 0.24
04/27/2016 2543.12 86016 753 361250 -275234 353 761 761 0.00 0.00 9 18 401 0.27
04/28/2016 2543.32 86773 757 361250 -274477 375 778 778 0.01 0.00 7 15 438 0.19
04/29/2016 2543.52 87535 762 361250 -273715 337 748 748 0.00 0.00 6 22 229 0.25
04/30/2016 2543.71 88263 728 361250 -272987 333 726 726 0.00 0.00 10 18 360 0.23
05/01/2016 2543.91 89034 771 361250 -272216 336 748 748 0.00 0.00 7 22 164 0.21
05/02/2016 2544.10 89771 737 361250 -271479 346 749 749 0.04 0.00 10 26 171 0.28
05/03/2016 2544.27 90434 663 361250 -270816 343 713 713 0.05 0.04 11 29 167 0.31
05/04/2016 2544.45 91140 706 361250 -270110 355 743 743 0.00 0.00 12 28 208 0.28
05/05/2016 2544.66 91969 829 361250 -269281 355 803 803 0.00 0.00 12 20 393 0.27
05/06/2016 2544.91 92962 993 361250 -268288 338 862 862 0.00 0.00 10 18 353 0.20
05/07/2016 2545.15 93922 960 361250 -267328 326 834 834 0.00 0.00 8 19 278 0.21
05/08/2016 2545.35 94728 806 361250 -266522 325 758 758 0.00 0.00 11 19 360 0.23
05/09/2016 2545.53 95457 729 361250 -265793 354 756 756 0.02 0.00 10 24 321 0.29
05/10/2016 2545.76 96395 938 361250 -264855 400 910 910 0.05 0.00 14 26 294 0.32
05/11/2016 2546.11 97833 1438 361250 -263417 400 1166 1166 0.05 0.00 12 31 176 0.35
05/12/2016 2546.56 99705 1872 361250 -261545 400 1392 1392 0.04 0.00 14 34 198 0.40
05/13/2016 2547.12 102070 2365 361250 -259180 401 1641 1641 0.00 0.00 15 33 200 0.39
05/14/2016 2547.74 104732 2662 361250 -256518 401 1786 1786 0.00 0.00 16 23 404 0.35
05/15/2016 2548.33 107311 2579 361250 -253939 401 1741 1741 0.00 0.00 14 22 455 0.32
05/16/2016 2548.87 109708 2397 361250 -251542 405 1655 1655 0.00 0.00 14 24 347 0.33
05/17/2016 2549.37 111961 2253 361250 -249289 408 1575 1575 0.04 0.00 13 24 199 0.23
05/18/2016 2549.82 114016 2055 361250 -247234 409 1493 1493 0.07 0.08 12 29 254 0.36
05/19/2016 2550.27 116096 2080 361250 -245154 410 1513 1513 0.01 0.00 16 29 291 0.41
05/20/2016 2550.82 118673 2577 361250 -242577 410 1749 1749 0.00 0.00 11 18 438 0.30
05/21/2016 2551.26 120762 2089 361250 -240488 411 1500 1500 0.00 0.00 8 17 391 0.26
05/22/2016 2551.60 122394 1632 361250 -238856 409 1271 1271 0.00 0.00 8 20 365 0.28
05/23/2016 2551.87 123700 1306 361250 -237550 409 1109 -- 0.00 0.00 10 21 353 0.30
05/24/2016 -- -- -- -- -- -- -- -- -- 0.00 -- -- -- --

Later | Latest

Warning! This data is preliminary and subject to revision.

Show ISB Map | Plot ISB Data | 1 Month ISB Data | Real-Time ISB Data | ISB Info